Time;durP1;ratioP1;P1;durP2;ratioP2;P2;SDS_P1;SDS_P2;PMS_P1;PMS_P2;Temp;Humidity;BMP_temperature;BMP_pressure;BME280_temperature;BME280_humidity;BME280_pressure;Samples;Min_cycle;Max_cycle;Signal;HPM_P1;HPM_P2
2021/08/02 00:00:48;;;;;;;4.95;2.17;;;15.80;99.90;;;;;;5044766;28;20120;-78
2021/08/02 00:03:23;;;;;;;4.82;2.25;;;15.80;99.90;;;;;;5052389;28;20045;-80
2021/08/02 00:05:54;;;;;;;6.03;2.10;;;15.90;99.90;;;;;;5052759;28;20103;-78
2021/08/02 00:08:22;;;;;;;4.47;2.00;;;15.80;99.90;;;;;;5052820;28;20131;-78
2021/08/02 00:10:51;;;;;;;5.40;2.00;;;15.80;99.90;;;;;;5054217;28;20490;-78
2021/08/02 00:13:29;;;;;;;3.78;1.90;;;15.80;99.90;;;;;;5054178;28;20136;-78
2021/08/02 00:16:00;;;;;;;5.57;2.38;;;15.80;99.90;;;;;;5052762;28;20380;-81
2021/08/02 00:18:28;;;;;;;3.90;2.10;;;15.80;99.90;;;;;;5051698;28;20140;-79
2021/08/02 00:20:57;;;;;;;4.75;2.22;;;15.80;99.90;;;;;;5052498;28;20049;-80
2021/08/02 00:23:25;;;;;;;4.15;2.10;;;15.80;99.90;;;;;;5052149;28;20131;-81
2021/08/02 00:25:53;;;;;;;4.13;2.03;;;15.80;99.90;;;;;;5052420;28;20122;-80
2021/08/02 00:28:20;;;;;;;4.38;2.08;;;15.80;99.90;;;;;;5052022;28;20581;-78
2021/08/02 00:30:48;;;;;;;4.38;2.20;;;15.80;99.90;;;;;;5052114;28;20140;-79
2021/08/02 00:33:17;;;;;;;4.70;2.10;;;15.70;99.90;;;;;;5051943;28;20051;-78
2021/08/02 00:35:54;;;;;;;5.40;2.13;;;15.80;99.90;;;;;;5052327;28;20152;-78
2021/08/02 00:38:26;;;;;;;4.50;1.80;;;15.80;99.90;;;;;;5052141;28;20067;-79
2021/08/02 00:41:17;;;;;;;5.47;2.13;;;15.80;99.90;;;;;;5052428;28;20402;-78
2021/08/02 00:44:45;;;;;;;4.55;2.05;;;15.80;99.90;;;;;;5046795;28;20041;-78
2021/08/02 00:47:16;;;;;;;4.63;2.20;;;15.80;99.90;;;;;;5050382;28;20132;-79
2021/08/02 00:50:05;;;;;;;3.92;1.73;;;15.80;99.90;;;;;;5052566;28;20152;-76
2021/08/02 00:52:34;;;;;;;3.30;1.90;;;15.80;99.90;;;;;;5045173;28;20553;-78
2021/08/02 00:55:05;;;;;;;3.53;1.83;;;15.80;99.90;;;;;;5055120;28;20110;-79
2021/08/02 00:57:37;;;;;;;4.72;1.90;;;15.80;99.90;;;;;;5047107;28;20596;-79
2021/08/02 01:00:10;;;;;;;3.55;1.88;;;15.80;99.90;;;;;;5056134;28;20131;-79
2021/08/02 01:02:41;;;;;;;3.83;1.80;;;15.80;99.90;;;;;;5049807;28;20120;-79
2021/08/02 01:05:12;;;;;;;4.15;1.90;;;15.90;99.90;;;;;;5055929;28;20084;-79
2021/08/02 01:07:50;;;;;;;3.10;1.73;;;15.80;99.90;;;;;;5056019;28;20127;-79
2021/08/02 01:10:19;;;;;;;5.60;1.77;;;15.90;99.90;;;;;;5055648;28;20132;-78
2021/08/02 01:12:49;;;;;;;4.32;1.70;;;15.90;99.90;;;;;;5056294;28;20239;-77
2021/08/02 01:15:19;;;;;;;4.88;1.67;;;15.90;99.90;;;;;;5055762;28;20131;-80
2021/08/02 01:17:48;;;;;;;4.30;1.80;;;15.90;99.90;;;;;;5056072;28;20143;-78
2021/08/02 01:20:17;;;;;;;3.00;1.60;;;15.90;99.90;;;;;;5055752;28;20132;-79
2021/08/02 01:22:47;;;;;;;3.95;1.92;;;15.90;99.90;;;;;;5055474;28;20051;-79
2021/08/02 01:26:13;;;;;;;4.93;2.00;;;15.90;99.90;;;;;;5055463;28;20040;-79
2021/08/02 01:29:37;;;;;;;3.35;1.73;;;16.00;99.90;;;;;;4988194;28;20487;-79
2021/08/02 01:32:04;;;;;;;4.90;1.65;;;16.00;99.90;;;;;;5055430;28;20132;-79
2021/08/02 01:34:31;;;;;;;4.05;1.58;;;16.00;99.90;;;;;;5048522;28;20165;-79
2021/08/02 01:36:58;;;;;;;4.32;1.80;;;16.00;99.90;;;;;;5057640;28;20079;-78
2021/08/02 01:39:27;;;;;;;4.05;1.80;;;16.00;99.90;;;;;;5057542;28;20148;-80
2021/08/02 01:41:54;;;;;;;3.05;1.42;;;16.00;99.90;;;;;;5055503;28;20045;-77
2021/08/02 01:44:21;;;;;;;4.30;1.50;;;16.00;99.90;;;;;;5055371;28;20453;-79
2021/08/02 01:46:59;;;;;;;3.58;1.73;;;16.00;99.90;;;;;;5055510;28;20136;-78
2021/08/02 01:49:35;;;;;;;3.08;1.75;;;16.10;99.90;;;;;;5055428;28;20064;-79
2021/08/02 01:52:06;;;;;;;5.70;1.55;;;16.10;99.90;;;;;;5056164;28;20085;-78
2021/08/02 01:54:42;;;;;;;4.80;1.90;;;16.10;99.90;;;;;;5048053;28;20483;-79
2021/08/02 01:57:14;;;;;;;4.15;1.63;;;16.10;99.90;;;;;;5054327;28;20447;-76
2021/08/02 01:59:46;;;;;;;4.53;1.60;;;16.10;99.90;;;;;;5054896;28;20049;-78
2021/08/02 02:02:18;;;;;;;3.03;1.40;;;16.10;99.90;;;;;;5054537;28;20044;-78
2021/08/02 02:04:53;;;;;;;4.72;1.80;;;16.20;99.90;;;;;;5055049;28;20045;-78
2021/08/02 02:07:22;;;;;;;3.15;1.55;;;16.10;99.90;;;;;;5054818;28;20135;-79
2021/08/02 02:09:52;;;;;;;3.83;1.60;;;16.20;99.90;;;;;;5055153;28;20087;-79
2021/08/02 02:12:20;;;;;;;3.45;1.60;;;16.20;99.90;;;;;;5054814;28;20128;-78
2021/08/02 02:14:48;;;;;;;3.15;1.70;;;16.20;99.90;;;;;;5054922;28;20044;-80
2021/08/02 02:17:15;;;;;;;4.30;1.77;;;16.20;99.90;;;;;;5054811;28;20471;-78
2021/08/02 02:19:43;;;;;;;4.05;1.65;;;16.20;99.90;;;;;;5056406;28;20132;-79
2021/08/02 02:22:11;;;;;;;3.53;1.70;;;16.20;99.90;;;;;;5056496;28;20135;-79
2021/08/02 02:24:40;;;;;;;3.53;1.70;;;16.20;99.90;;;;;;5054820;28;20068;-80
2021/08/02 02:27:09;;;;;;;3.72;1.90;;;16.20;99.90;;;;;;5054600;28;20044;-79
2021/08/02 02:29:37;;;;;;;3.00;1.67;;;16.20;99.90;;;;;;5047722;28;20132;-79
2021/08/02 02:32:06;;;;;;;4.45;1.60;;;16.20;99.90;;;;;;5054746;28;20045;-78
2021/08/02 02:34:37;;;;;;;4.45;1.70;;;16.20;99.90;;;;;;5047290;28;20044;-79
2021/08/02 02:37:05;;;;;;;4.80;1.70;;;16.20;99.90;;;;;;5054543;28;20133;-78
2021/08/02 02:39:33;;;;;;;3.70;1.67;;;16.20;99.90;;;;;;5047714;28;20045;-79
2021/08/02 02:42:02;;;;;;;3.65;1.67;;;16.20;99.90;;;;;;5054480;28;20136;-79
2021/08/02 02:44:31;;;;;;;3.05;1.80;;;16.10;99.90;;;;;;5054401;28;20131;-80
2021/08/02 02:46:59;;;;;;;4.10;1.70;;;16.20;99.90;;;;;;5054438;28;20137;-80
2021/08/02 02:49:28;;;;;;;3.65;1.55;;;16.20;99.90;;;;;;5054177;28;20478;-80
2021/08/02 02:51:55;;;;;;;3.30;1.73;;;16.20;99.90;;;;;;5054191;28;20045;-77
2021/08/02 02:54:24;;;;;;;3.65;1.52;;;16.10;99.90;;;;;;5053887;28;20074;-79
2021/08/02 02:56:54;;;;;;;4.72;1.80;;;16.10;99.90;;;;;;5054328;28;20075;-79
2021/08/02 02:59:21;;;;;;;3.28;1.50;;;16.10;99.90;;;;;;5053800;28;20524;-79
2021/08/02 03:01:52;;;;;;;3.42;1.48;;;16.10;99.90;;;;;;5054707;28;20053;-78
2021/08/02 03:04:21;;;;;;;2.88;1.60;;;16.20;99.90;;;;;;5054304;28;20045;-80
2021/08/02 03:06:49;;;;;;;4.00;1.80;;;16.20;99.90;;;;;;5051694;28;20045;-79
2021/08/02 03:09:19;;;;;;;3.35;1.58;;;16.20;99.90;;;;;;5049321;28;20044;-79
2021/08/02 03:11:48;;;;;;;4.00;1.77;;;16.20;99.90;;;;;;5050741;28;20095;-78
2021/08/02 03:14:16;;;;;;;3.08;1.65;;;16.20;99.90;;;;;;5050703;28;20032;-80
2021/08/02 03:16:44;;;;;;;3.33;1.50;;;16.10;99.90;;;;;;5050832;28;20051;-79
2021/08/02 03:19:12;;;;;;;4.28;1.60;;;16.20;99.90;;;;;;5050213;28;20135;-78
2021/08/02 03:21:39;;;;;;;3.28;2.00;;;16.20;99.90;;;;;;5050900;28;20124;-76
2021/08/02 03:24:13;;;;;;;4.65;1.67;;;16.20;99.90;;;;;;5050852;28;20194;-77
2021/08/02 03:26:46;;;;;;;5.03;1.75;;;16.20;99.90;;;;;;5051105;28;20049;-80
2021/08/02 03:29:20;;;;;;;3.90;1.60;;;16.10;99.90;;;;;;5050380;28;20055;-78
2021/08/02 03:31:51;;;;;;;;;;;16.20;99.90;;;;;;5050810;28;20145;-77
2021/08/02 03:34:25;;;;;;;4.13;1.55;;;16.10;99.90;;;;;;5050099;28;19924;-76
2021/08/02 03:36:53;;;;;;;4.00;1.50;;;16.20;99.90;;;;;;5050469;28;20061;-77
2021/08/02 03:39:24;;;;;;;4.68;1.70;;;16.20;99.90;;;;;;5050147;28;20048;-78
2021/08/02 03:41:52;;;;;;;3.58;1.60;;;16.20;99.90;;;;;;5050387;28;20124;-78
2021/08/02 03:44:21;;;;;;;3.30;1.70;;;16.20;99.90;;;;;;5049957;28;20438;-76
2021/08/02 03:46:48;;;;;;;3.70;1.75;;;16.20;99.90;;;;;;5052465;28;20144;-79
2021/08/02 03:49:16;;;;;;;4.78;1.60;;;16.20;99.90;;;;;;5050116;28;20128;-78
2021/08/02 03:51:49;;;;;;;2.75;1.40;;;16.20;99.90;;;;;;5049847;28;20083;-79
2021/08/02 03:54:18;;;;;;;3.33;1.60;;;16.20;99.90;;;;;;5050283;28;20059;-78
2021/08/02 03:56:45;;;;;;;3.45;1.58;;;16.20;99.90;;;;;;5049937;28;20049;-78
2021/08/02 03:59:13;;;;;;;3.55;1.60;;;16.20;99.90;;;;;;5049393;28;20045;-78
2021/08/02 04:01:40;;;;;;;3.17;1.55;;;16.20;99.90;;;;;;5050038;28;20129;-79
2021/08/02 04:04:08;;;;;;;3.90;1.58;;;16.20;99.90;;;;;;5053068;28;20443;-79
2021/08/02 04:06:36;;;;;;;4.55;1.80;;;16.30;99.90;;;;;;5053493;28;20175;-80
2021/08/02 04:09:07;;;;;;;2.80;1.60;;;16.30;99.90;;;;;;5053131;28;20141;-78
2021/08/02 04:11:35;;;;;;;4.22;1.52;;;16.20;99.90;;;;;;5052831;28;20052;-80
2021/08/02 04:14:03;;;;;;;2.95;1.50;;;16.20;99.90;;;;;;5053702;28;20136;-78
2021/08/02 04:16:30;;;;;;;3.17;1.42;;;16.20;99.90;;;;;;5052410;28;20140;-79
2021/08/02 04:18:57;;;;;;;5.82;1.75;;;16.20;99.90;;;;;;5053330;28;20131;-78
2021/08/02 04:21:24;;;;;;;5.10;1.80;;;16.30;99.90;;;;;;5053404;28;20068;-77
2021/08/02 04:23:51;;;;;;;3.67;1.70;;;16.30;99.90;;;;;;5052976;28;20559;-79
2021/08/02 04:26:20;;;;;;;3.67;1.77;;;16.20;99.90;;;;;;5052391;28;20132;-80
2021/08/02 04:28:49;;;;;;;3.50;1.80;;;16.20;99.90;;;;;;5053027;28;20140;-79
2021/08/02 04:31:16;;;;;;;3.42;1.40;;;16.30;99.90;;;;;;5051938;28;20041;-78
2021/08/02 04:33:43;;;;;;;3.33;1.67;;;16.30;99.90;;;;;;5052892;28;20132;-79
2021/08/02 04:36:10;;;;;;;4.55;1.80;;;16.30;99.90;;;;;;5052847;28;20140;-80
2021/08/02 04:38:37;;;;;;;3.15;1.65;;;16.30;99.90;;;;;;5053083;28;20045;-78
2021/08/02 04:41:04;;;;;;;3.90;1.80;;;16.30;99.90;;;;;;5053220;28;20084;-78
2021/08/02 04:43:33;;;;;;;3.95;1.80;;;16.30;99.90;;;;;;5053059;28;20045;-78
2021/08/02 04:46:00;;;;;;;4.43;1.60;;;16.20;99.90;;;;;;5052724;28;20124;-77
2021/08/02 04:48:27;;;;;;;4.32;1.70;;;16.20;99.90;;;;;;5053434;28;20049;-80
2021/08/02 04:50:55;;;;;;;3.92;1.70;;;16.20;99.90;;;;;;5052943;28;20047;-79
2021/08/02 04:53:22;;;;;;;4.00;1.60;;;16.20;99.90;;;;;;5053140;28;20443;-79
2021/08/02 04:55:49;;;;;;;2.97;1.60;;;16.20;99.90;;;;;;5053394;28;20069;-78
2021/08/02 04:58:16;;;;;;;3.10;1.70;;;16.20;99.90;;;;;;5052811;28;20136;-78
2021/08/02 05:00:46;;;;;;;4.22;1.75;;;16.20;99.90;;;;;;5053509;28;20521;-79
2021/08/02 05:03:13;;;;;;;4.70;1.60;;;16.20;99.90;;;;;;5053346;28;20052;-78
2021/08/02 05:05:40;;;;;;;4.13;1.95;;;16.20;99.90;;;;;;5053424;28;20558;-79
2021/08/02 05:08:07;;;;;;;4.43;1.85;;;16.20;99.90;;;;;;5053591;28;20134;-79
2021/08/02 05:10:34;;;;;;;7.60;1.85;;;16.20;99.90;;;;;;5053606;28;20136;-78
2021/08/02 05:13:01;;;;;;;4.45;1.83;;;16.20;99.90;;;;;;5051809;28;20555;-79
2021/08/02 05:15:29;;;;;;;4.07;1.63;;;16.20;99.90;;;;;;5053135;28;20138;-80
2021/08/02 05:17:57;;;;;;;4.95;1.80;;;16.30;99.90;;;;;;5053305;28;20055;-79
2021/08/02 05:20:24;;;;;;;3.45;1.75;;;16.20;99.90;;;;;;5052949;28;20055;-79
2021/08/02 05:22:52;;;;;;;3.33;1.60;;;16.30;99.90;;;;;;5052618;28;20402;-78
2021/08/02 05:25:20;;;;;;;5.15;2.00;;;16.30;99.90;;;;;;5052528;28;20059;-79
2021/08/02 05:27:51;;;;;;;3.30;1.58;;;16.30;99.90;;;;;;5052294;28;20045;-77
2021/08/02 05:30:18;;;;;;;3.30;1.50;;;16.30;99.90;;;;;;5052487;28;20127;-78
2021/08/02 05:32:46;;;;;;;4.78;1.38;;;16.40;99.90;;;;;;5051994;28;20041;-79
2021/08/02 05:35:15;;;;;;;2.80;1.48;;;16.40;99.90;;;;;;5052141;28;20060;-77
2021/08/02 05:37:42;;;;;;;3.55;1.60;;;16.40;99.90;;;;;;5032859;28;20049;-80
2021/08/02 05:40:11;;;;;;;4.93;1.52;;;16.40;99.90;;;;;;5032636;28;20162;-79
2021/08/02 05:42:38;;;;;;;3.53;1.67;;;16.40;99.90;;;;;;5033038;28;20463;-79
2021/08/02 05:45:07;;;;;;;3.63;1.75;;;16.40;99.90;;;;;;5036243;28;20045;-79
2021/08/02 05:47:35;;;;;;;4.10;1.80;;;16.40;99.90;;;;;;5054113;28;20136;-78
2021/08/02 05:50:03;;;;;;;4.00;1.73;;;16.40;99.90;;;;;;5056193;28;20056;-78
2021/08/02 05:52:32;;;;;;;3.00;1.70;;;16.30;99.90;;;;;;5055827;28;20487;-79
2021/08/02 05:54:59;;;;;;;2.70;1.40;;;16.30;99.90;;;;;;5055635;28;20126;-78
2021/08/02 05:57:26;;;;;;;3.78;1.92;;;16.40;99.90;;;;;;5055674;28;20124;-78
2021/08/02 05:59:53;;;;;;;4.00;2.00;;;16.30;99.90;;;;;;5055812;28;20156;-79
2021/08/02 06:02:20;;;;;;;3.60;1.50;;;16.30;99.90;;;;;;5055824;28;20091;-78
2021/08/02 06:04:48;;;;;;;4.78;1.50;;;16.30;99.90;;;;;;5055845;28;20067;-77
2021/08/02 06:07:15;;;;;;;3.40;1.80;;;16.30;99.90;;;;;;5055414;28;20383;-79
2021/08/02 06:09:43;;;;;;;3.63;1.90;;;16.30;99.90;;;;;;5055750;28;20562;-80
2021/08/02 06:12:10;;;;;;;5.38;1.73;;;16.30;99.90;;;;;;5055726;28;20075;-78
2021/08/02 06:14:38;;;;;;;4.75;1.70;;;16.40;99.90;;;;;;5055845;28;20123;-78
2021/08/02 06:17:05;;;;;;;4.30;1.70;;;16.30;99.90;;;;;;5055547;28;20136;-79
2021/08/02 06:19:32;;;;;;;3.08;1.52;;;16.40;99.90;;;;;;5055741;28;20132;-79
2021/08/02 06:21:59;;;;;;;3.92;1.80;;;16.40;99.90;;;;;;5055309;28;20132;-78
2021/08/02 06:24:26;;;;;;;3.88;1.70;;;16.40;99.90;;;;;;5055513;28;20043;-79
2021/08/02 06:26:54;;;;;;;4.60;1.95;;;16.40;99.90;;;;;;5055357;28;20079;-78
2021/08/02 06:29:21;;;;;;;3.17;1.70;;;16.40;99.90;;;;;;5055250;28;20458;-79
2021/08/02 06:31:49;;;;;;;4.82;1.70;;;16.50;99.90;;;;;;5055498;28;20143;-77
2021/08/02 06:34:16;;;;;;;4.47;1.80;;;16.50;99.90;;;;;;5054974;28;20560;-79
2021/08/02 06:36:43;;;;;;;3.65;1.90;;;16.50;99.90;;;;;;5054937;28;20052;-80
2021/08/02 06:39:10;;;;;;;4.18;1.70;;;16.50;99.90;;;;;;5055215;28;20081;-79
2021/08/02 06:41:37;;;;;;;3.78;2.00;;;16.50;99.90;;;;;;5055175;28;20119;-79
2021/08/02 06:44:06;;;;;;;5.43;2.17;;;16.50;99.90;;;;;;5055394;28;20124;-78
2021/08/02 06:46:33;;;;;;;5.20;1.60;;;16.50;99.90;;;;;;5054501;28;20664;-80
2021/08/02 06:49:00;;;;;;;4.40;1.77;;;16.50;99.90;;;;;;5054643;28;20131;-80
2021/08/02 06:51:27;;;;;;;4.07;1.80;;;16.60;99.90;;;;;;5055011;28;20123;-80
2021/08/02 06:53:56;;;;;;;4.43;1.55;;;16.60;99.90;;;;;;5055030;28;20144;-78
2021/08/02 06:56:23;;;;;;;5.15;1.80;;;16.60;99.90;;;;;;5054952;28;20126;-80
2021/08/02 06:58:50;;;;;;;5.22;1.80;;;16.70;99.90;;;;;;5055674;28;20137;-80
2021/08/02 07:01:18;;;;;;;4.25;1.70;;;16.70;99.90;;;;;;5054246;28;20136;-79
2021/08/02 07:03:45;;;;;;;3.47;1.48;;;16.80;99.90;;;;;;5053952;28;20127;-80
2021/08/02 07:06:12;;;;;;;5.03;1.83;;;16.90;99.90;;;;;;5054338;28;20136;-79
2021/08/02 07:08:40;;;;;;;3.63;1.67;;;17.00;99.90;;;;;;5054466;28;20132;-80
2021/08/02 07:11:07;;;;;;;3.83;1.80;;;17.00;99.90;;;;;;5054827;28;20045;-79
2021/08/02 07:13:35;;;;;;;3.90;1.58;;;17.10;99.90;;;;;;5054493;28;20049;-78
2021/08/02 07:16:02;;;;;;;3.80;1.52;;;17.20;99.90;;;;;;5054062;28;20136;-77
2021/08/02 07:18:32;;;;;;;3.80;1.80;;;17.30;99.90;;;;;;5054269;28;20136;-80
2021/08/02 07:20:59;;;;;;;3.70;1.60;;;17.40;99.90;;;;;;5054717;28;20077;-80
2021/08/02 07:23:27;;;;;;;5.18;1.60;;;17.40;99.90;;;;;;5054713;28;20169;-80
2021/08/02 07:25:54;;;;;;;4.43;1.70;;;17.50;99.90;;;;;;5054959;28;20140;-80
2021/08/02 07:28:21;;;;;;;4.00;1.40;;;17.60;99.70;;;;;;5054723;28;20135;-79
2021/08/02 07:30:48;;;;;;;3.50;1.45;;;17.60;99.20;;;;;;5053742;28;20076;-81
2021/08/02 07:33:16;;;;;;;3.20;1.48;;;17.60;98.80;;;;;;5054673;28;20116;-77
2021/08/02 07:35:44;;;;;;;3.17;1.30;;;17.70;98.80;;;;;;5054045;28;20147;-78
2021/08/02 07:38:12;;;;;;;3.15;1.40;;;17.70;98.90;;;;;;5054159;28;20578;-79
2021/08/02 07:40:39;;;;;;;3.13;1.60;;;17.80;98.80;;;;;;5054182;28;20080;-79
2021/08/02 07:43:06;;;;;;;2.97;1.38;;;17.90;98.60;;;;;;5053525;28;20049;-80
2021/08/02 07:45:33;;;;;;;3.53;1.35;;;17.90;98.30;;;;;;5054716;28;20080;-80
2021/08/02 07:48:00;;;;;;;3.22;1.40;;;17.90;98.20;;;;;;5053629;28;20056;-78
2021/08/02 07:50:28;;;;;;;3.47;1.40;;;18.00;97.90;;;;;;5053440;28;20076;-81
2021/08/02 07:52:56;;;;;;;3.95;1.55;;;18.00;97.90;;;;;;5053099;28;20124;-79
2021/08/02 07:55:23;;;;;;;2.97;1.30;;;18.10;97.90;;;;;;5054016;28;20051;-80
2021/08/02 07:57:50;;;;;;;3.97;1.60;;;18.10;97.70;;;;;;5053147;28;21932;-80
2021/08/02 08:00:17;;;;;;;3.13;1.60;;;18.20;97.80;;;;;;5053483;28;20055;-80
2021/08/02 08:02:45;;;;;;;3.05;1.42;;;18.20;97.70;;;;;;5053492;28;20503;-81
2021/08/02 08:05:13;;;;;;;3.70;1.42;;;18.20;98.00;;;;;;5053253;28;20049;-79
2021/08/02 08:07:45;;;;;;;3.30;1.50;;;18.20;97.90;;;;;;5050311;28;20318;-77
2021/08/02 08:10:16;;;;;;;4.43;1.70;;;18.30;98.10;;;;;;5049178;28;20169;-78
2021/08/02 08:12:43;;;;;;;4.25;1.70;;;18.30;97.70;;;;;;5049229;28;20123;-78
2021/08/02 08:15:12;;;;;;;5.47;1.70;;;18.30;97.50;;;;;;5049874;28;20080;-79
2021/08/02 08:17:39;;;;;;;3.08;1.60;;;18.20;97.70;;;;;;5049748;28;20083;-77
2021/08/02 08:20:09;;;;;;;4.93;1.50;;;18.30;97.90;;;;;;5049585;28;20048;-78
2021/08/02 08:22:37;;;;;;;4.15;1.65;;;18.30;97.50;;;;;;5048887;28;20140;-80
2021/08/02 08:25:05;;;;;;;3.92;1.60;;;18.40;97.30;;;;;;5049289;28;20131;-78
2021/08/02 08:27:33;;;;;;;4.13;1.48;;;18.40;96.90;;;;;;5048987;28;20545;-79
2021/08/02 08:30:01;;;;;;;3.40;1.58;;;18.40;96.90;;;;;;5049460;28;20554;-78
2021/08/02 08:32:28;;;;;;;3.42;1.60;;;18.50;96.70;;;;;;5050059;28;20140;-81
2021/08/02 08:34:55;;;;;;;3.25;1.30;;;18.60;96.30;;;;;;5049279;28;20053;-78
2021/08/02 08:37:22;;;;;;;4.43;1.73;;;18.60;96.50;;;;;;5049025;28;20127;-76
2021/08/02 08:39:49;;;;;;;3.28;1.42;;;18.70;96.40;;;;;;5048928;28;20083;-79
2021/08/02 08:42:16;;;;;;;3.00;1.30;;;18.70;96.00;;;;;;5049150;28;20111;-79
2021/08/02 08:44:45;;;;;;;3.28;1.20;;;18.70;96.10;;;;;;5049191;28;20133;-81
2021/08/02 08:47:12;;;;;;;3.00;1.33;;;18.80;96.20;;;;;;5049201;28;20049;-78
2021/08/02 08:49:41;;;;;;;3.33;1.40;;;18.80;96.00;;;;;;5049806;28;20182;-78
2021/08/02 08:52:09;;;;;;;4.13;1.52;;;18.80;96.10;;;;;;5049470;28;20445;-78
2021/08/02 08:54:37;;;;;;;3.15;1.30;;;18.80;95.80;;;;;;5048705;28;20084;-80
2021/08/02 08:57:08;;;;;;;3.38;1.40;;;18.80;95.90;;;;;;5048844;28;20045;-78
2021/08/02 08:59:48;;;;;;;3.13;1.30;;;18.80;95.80;;;;;;5048481;28;20045;-79
2021/08/02 09:02:15;;;;;;;2.80;1.50;;;18.80;95.60;;;;;;5049508;28;20136;-76
2021/08/02 09:04:53;;;;;;;4.10;1.50;;;18.70;95.10;;;;;;5049067;28;20140;-80
2021/08/02 09:07:21;;;;;;;3.63;1.60;;;18.70;95.40;;;;;;5049183;28;20056;-80
2021/08/02 09:09:48;;;;;;;3.60;1.40;;;18.70;95.30;;;;;;5047916;28;20053;-79
2021/08/02 09:12:17;;;;;;;4.20;1.20;;;18.70;95.40;;;;;;5048856;28;20132;-79
2021/08/02 09:14:53;;;;;;;2.88;1.30;;;18.70;95.00;;;;;;5049040;28;20049;-80
2021/08/02 09:17:34;;;;;;;2.63;1.30;;;18.80;95.00;;;;;;5049678;28;20048;-80
2021/08/02 09:20:05;;;;;;;2.75;1.30;;;18.90;95.10;;;;;;5049824;28;20051;-80
2021/08/02 09:22:35;;;;;;;3.15;1.40;;;19.00;94.50;;;;;;5053479;28;20099;-80
2021/08/02 09:25:12;;;;;;;3.75;1.15;;;19.00;93.30;;;;;;5053685;28;20044;-80
2021/08/02 09:27:41;;;;;;;3.53;1.30;;;19.10;93.50;;;;;;5052530;28;20459;-80
2021/08/02 09:30:30;;;;;;;2.83;1.30;;;19.10;94.20;;;;;;5053288;28;20084;-80
2021/08/02 09:33:03;;;;;;;4.25;1.30;;;19.20;93.70;;;;;;5050076;28;20137;-80
2021/08/02 09:35:34;;;;;;;3.58;1.23;;;19.20;93.20;;;;;;5053082;28;20144;-78
2021/08/02 09:38:04;;;;;;;3.70;1.50;;;19.20;93.00;;;;;;5053531;28;20414;-79
2021/08/02 09:40:44;;;;;;;3.05;1.38;;;19.30;93.50;;;;;;5052679;28;20414;-77
2021/08/02 09:43:13;;;;;;;4.28;1.33;;;19.30;93.20;;;;;;5053167;28;20129;-77
2021/08/02 09:45:48;;;;;;;2.83;1.27;;;19.40;92.50;;;;;;5052768;28;20127;-80
2021/08/02 09:48:19;;;;;;;3.47;1.42;;;19.30;92.90;;;;;;5053049;28;20148;-79
2021/08/02 09:50:47;;;;;;;2.90;1.20;;;19.40;93.30;;;;;;5052903;28;20544;-79
2021/08/02 09:53:16;;;;;;;5.32;1.52;;;19.40;93.20;;;;;;5052264;28;20060;-80
2021/08/02 09:55:45;;;;;;;2.72;1.20;;;19.50;93.20;;;;;;5052564;28;20060;-79
2021/08/02 09:58:18;;;;;;;6.80;3.70;;;19.60;93.10;;;;;;5052945;28;20186;-79
2021/08/02 10:00:47;;;;;;;4.43;2.20;;;19.70;93.20;;;;;;5052833;28;20060;-79
2021/08/02 10:03:15;;;;;;;4.10;2.08;;;19.70;92.90;;;;;;5052788;28;20044;-80
2021/08/02 10:05:42;;;;;;;3.50;1.33;;;19.80;92.80;;;;;;5051848;28;20143;-79
2021/08/02 10:08:10;;;;;;;2.40;1.15;;;19.80;92.50;;;;;;5052673;28;20123;-79
2021/08/02 10:10:38;;;;;;;3.75;1.27;;;19.90;92.20;;;;;;5052444;28;20056;-79
2021/08/02 10:13:06;;;;;;;6.47;1.38;;;19.90;92.30;;;;;;5052206;28;20466;-79
2021/08/02 10:15:33;;;;;;;3.60;1.45;;;20.00;92.10;;;;;;5052500;28;20128;-75
2021/08/02 10:18:05;;;;;;;4.63;1.20;;;20.10;92.50;;;;;;5052092;28;20156;-79
2021/08/02 10:20:34;;;;;;;3.55;1.30;;;20.10;92.20;;;;;;5052290;28;20045;-79
2021/08/02 10:23:03;;;;;;;2.50;1.35;;;20.20;92.10;;;;;;5052139;28;20499;-78
2021/08/02 10:25:39;;;;;;;2.90;1.40;;;20.20;91.80;;;;;;5052305;28;20041;-77
2021/08/02 10:28:14;;;;;;;3.92;1.40;;;20.20;91.60;;;;;;5052045;28;20167;-78
2021/08/02 10:30:46;;;;;;;3.10;1.45;;;20.30;91.10;;;;;;5051538;28;20517;-75
2021/08/02 10:33:14;;;;;;;2.53;1.10;;;20.40;90.70;;;;;;5051233;28;20124;-77
2021/08/02 10:35:45;;;;;;;3.00;1.27;;;20.40;91.10;;;;;;5052106;28;20065;-79
2021/08/02 10:38:14;;;;;;;2.70;1.38;;;20.50;90.20;;;;;;5053306;28;20106;-78
2021/08/02 10:40:54;;;;;;;2.40;1.10;;;20.60;90.20;;;;;;5057192;28;20044;-79
2021/08/02 10:43:31;;;;;;;3.10;1.23;;;20.60;89.40;;;;;;5052731;28;20307;-78
2021/08/02 10:45:59;;;;;;;3.50;1.30;;;20.60;89.40;;;;;;5051585;28;20053;-79
2021/08/02 10:48:30;;;;;;;3.15;1.17;;;20.60;89.50;;;;;;5051412;28;20413;-80
2021/08/02 10:51:09;;;;;;;3.10;1.20;;;20.60;90.20;;;;;;5051542;28;20053;-79
2021/08/02 10:53:36;;;;;;;3.70;1.30;;;20.70;90.40;;;;;;5051870;28;20167;-80
2021/08/02 10:56:04;;;;;;;3.10;1.40;;;20.70;90.40;;;;;;5052349;28;20140;-78
2021/08/02 10:58:36;;;;;;;4.20;1.40;;;20.80;88.30;;;;;;5051891;28;20108;-79
2021/08/02 11:01:05;;;;;;;3.90;1.00;;;20.80;90.20;;;;;;5051818;28;20123;-81
2021/08/02 11:03:36;;;;;;;3.58;1.25;;;20.90;88.20;;;;;;5050986;28;20120;-79
2021/08/02 11:06:12;;;;;;;2.33;0.90;;;20.90;87.30;;;;;;5050836;28;20048;-80
2021/08/02 11:08:49;;;;;;;2.30;1.20;;;21.00;88.80;;;;;;5050860;28;20127;-80
2021/08/02 11:11:25;;;;;;;3.22;1.20;;;21.20;87.60;;;;;;5050547;28;20045;-79
2021/08/02 11:14:05;;;;;;;2.97;1.02;;;21.20;88.10;;;;;;5051583;28;20478;-77
2021/08/02 11:16:40;;;;;;;6.72;3.15;;;21.30;87.20;;;;;;5051367;28;20562;-80
2021/08/02 11:19:20;;;;;;;3.90;1.25;;;21.30;86.60;;;;;;5051305;28;20041;-79
2021/08/02 11:21:47;;;;;;;3.63;1.38;;;21.20;87.10;;;;;;5051439;28;20391;-79
2021/08/02 11:24:15;;;;;;;2.88;1.23;;;21.20;86.10;;;;;;5050683;28;20075;-79
2021/08/02 11:26:48;;;;;;;5.05;1.48;;;21.10;87.40;;;;;;5051531;28;20155;-80
2021/08/02 11:29:20;;;;;;;4.20;1.20;;;20.90;85.60;;;;;;5050464;28;20077;-79
2021/08/02 11:31:59;;;;;;;3.05;1.33;;;20.80;87.10;;;;;;5050932;28;20693;-79
2021/08/02 11:34:29;;;;;;;2.63;1.30;;;20.80;89.20;;;;;;5050857;28;20136;-79
2021/08/02 11:37:05;;;;;;;2.88;1.10;;;20.70;89.20;;;;;;5050047;28;20130;-80
2021/08/02 11:39:35;;;;;;;2.97;0.98;;;20.70;86.80;;;;;;5050589;28;20045;-79
2021/08/02 11:42:06;;;;;;;1.85;0.90;;;20.70;84.90;;;;;;5050293;28;20131;-80
2021/08/02 11:44:35;;;;;;;1.88;0.60;;;20.70;83.50;;;;;;5051158;28;20136;-81
2021/08/02 11:47:05;;;;;;;1.73;0.70;;;20.70;80.30;;;;;;5050479;28;20088;-81
2021/08/02 11:49:35;;;;;;;1.98;0.60;;;20.80;78.40;;;;;;5050246;28;20060;-76
2021/08/02 11:52:03;;;;;;;2.15;0.93;;;20.80;77.20;;;;;;5050632;28;20060;-79
2021/08/02 11:54:30;;;;;;;2.63;1.05;;;20.90;76.80;;;;;;5050447;28;20136;-80
2021/08/02 11:56:57;;;;;;;7.63;3.60;;;21.00;77.30;;;;;;5050633;28;20156;-76
2021/08/02 11:59:26;;;;;;;1.90;0.90;;;21.00;77.70;;;;;;5049941;28;20136;-78
2021/08/02 12:01:56;;;;;;;2.45;0.82;;;21.10;77.20;;;;;;5050659;28;20167;-78
2021/08/02 12:04:25;;;;;;;2.08;0.90;;;21.10;77.80;;;;;;5050318;28;20098;-77
2021/08/02 12:06:55;;;;;;;2.95;1.08;;;21.20;79.20;;;;;;5050483;28;20139;-79
2021/08/02 12:09:34;;;;;;;2.55;1.10;;;21.30;79.20;;;;;;5050078;28;20045;-77
2021/08/02 12:12:02;;;;;;;2.15;1.00;;;21.50;78.00;;;;;;5050328;28;20049;-79
2021/08/02 12:14:31;;;;;;;1.77;0.90;;;21.50;78.80;;;;;;5030442;28;20056;-79
2021/08/02 12:17:03;;;;;;;2.22;1.00;;;21.60;76.20;;;;;;5047843;28;20044;-79
2021/08/02 12:19:30;;;;;;;2.03;0.95;;;21.60;75.40;;;;;;5050281;28;20077;-81
2021/08/02 12:22:00;;;;;;;2.35;1.00;;;21.60;75.10;;;;;;5052428;28;20092;-79
2021/08/02 12:24:27;;;;;;;2.10;1.00;;;21.60;75.80;;;;;;5050190;28;20056;-80
2021/08/02 12:26:57;;;;;;;2.17;0.80;;;21.60;74.90;;;;;;5050020;28;20131;-80
2021/08/02 12:29:27;;;;;;;2.17;0.85;;;21.70;74.70;;;;;;5029826;28;20069;-77
2021/08/02 12:31:56;;;;;;;2.63;0.90;;;21.90;73.80;;;;;;5030435;28;20467;-80
2021/08/02 12:34:24;;;;;;;1.63;0.80;;;22.10;70.90;;;;;;5044516;28;20467;-78
2021/08/02 12:36:54;;;;;;;2.42;0.73;;;22.20;71.20;;;;;;5050218;28;20451;-81
2021/08/02 12:39:24;;;;;;;2.03;0.90;;;22.30;70.10;;;;;;5050058;28;20048;-78
2021/08/02 12:41:51;;;;;;;2.17;0.88;;;22.50;69.60;;;;;;5048948;28;20124;-79
2021/08/02 12:44:18;;;;;;;2.00;0.80;;;22.70;69.60;;;;;;5051765;28;20108;-79
2021/08/02 12:46:45;;;;;;;2.58;0.90;;;22.70;69.10;;;;;;5050341;28;20123;-79
2021/08/02 12:49:12;;;;;;;2.40;0.90;;;22.60;67.80;;;;;;5049397;28;20487;-80
2021/08/02 12:51:39;;;;;;;5.63;2.90;;;22.60;68.70;;;;;;5050085;28;20128;-80
2021/08/02 12:54:07;;;;;;;3.15;1.38;;;22.50;69.40;;;;;;5053644;28;20059;-80
2021/08/02 12:56:35;;;;;;;3.10;0.85;;;22.40;69.20;;;;;;5053250;28;20136;-78
2021/08/02 12:59:02;;;;;;;2.20;0.90;;;22.50;69.50;;;;;;5054173;28;20083;-78
2021/08/02 13:01:29;;;;;;;2.47;0.80;;;22.60;69.60;;;;;;5052970;28;20136;-81